Aviation Digital Data Service (ADDS)

Output produced by METARs form (0753 UTC 10 December 2022)
found at http://aviationweather.gov/metar/data/
 
METAR text: ETNT 100720Z AUTO 16004KT //// // ////// M02/M03 Q1008 ///
Conditions at: ETNT (WITTMUNDHAVEN(GA, DE) observed 0720 UTC 10 December 2022
Temperature: -2.0°C (28°F)
Dewpoint: -3.0°C (27°F) [RH = 93%]
Pressure (altimeter): 29.76 inches Hg (1008.0 mb)
Winds: from the SSE (160 degrees) at 5 MPH (4 knots; 2.1 m/s)
Visibility: missing
Ceiling: unknown
Clouds: missing
Weather: no significant weather observed at this time